This is the latest recevied weather packets stored in our database for station/object DG7FDL-13. If no packets are shown the sender has not sent any weather packets the latest 10 day(s).
| Time | Temp. | Humidity | Pressure | Rain* | Wind** | Luminosity | Snow |
|---|---|---|---|---|---|---|---|
| 1778098732 | 11.11° C | 93% | 1008.3 hPa | 0 mm | - | - | - |
| 1778094651 | 11.67° C | 92% | 1007.5 hPa | 0 mm | - | - | - |
| 1778092759 | 12.22° C | 92% | 1006.8 hPa | 0 mm | - | - | - |
| 1778092251 | 12.22° C | 92% | 1006.7 hPa | 0 mm | - | - | - |
| 1778089919 | 13.33° C | 86% | 1006.5 hPa | 0 mm | - | - | - |
| 1778086278 | 14.44° C | 83% | 1005.7 hPa | 0 mm | - | - | - |
| 1778084455 | 16.67° C | 73% | 1005.3 hPa | 0 mm | - | - | - |
| 1778082247 | 17.22° C | 66% | 1005.2 hPa | 0 mm | - | - | - |
| 1778078358 | 18.33° C | 62% | 1005.2 hPa | 0 mm | - | - | - |
| 1778076487 | 17.22° C | 64% | 1005.3 hPa | 0 mm | - | - | - |
| 1778075479 | 17.22° C | 64% | 1005.3 hPa | 0 mm | - | - | - |
| 1778074271 | 17.22° C | 61% | 1005.5 hPa | 0 mm | - | - | - |
| 1778069383 | 16.67° C | 64% | 1005.5 hPa | 0 mm | - | - | - |
| 1778064727 | 15° C | 82% | 1005.8 hPa | 0 mm | - | - | - |
| 1778062807 | 14.44° C | 85% | 1005.9 hPa | 0 mm | - | - | - |
| 1778062087 | 15° C | 88% | 1006 hPa | 0 mm | - | - | - |
| 1778061003 | 14.44° C | 88% | 1005.9 hPa | 0 mm | - | - | - |
| 1778058487 | 13.89° C | 94% | 1005.7 hPa | 0 mm | - | - | - |
| 1778056759 | 13.89° C | 96% | 1005.5 hPa | 0 mm | - | - | - |
| 1778053927 | 13.33° C | 99% | 1005.5 hPa | 0 mm | - | - | - |
| 1778048407 | 12.78° C | - | 1005.3 hPa | 0 mm | - | - | - |
| 1778047831 | 12.78° C | - | 1005.2 hPa | 0 mm | - | - | - |
| 1778045383 | 12.22° C | - | 1005.4 hPa | 0 mm | - | - | - |
| 1778044759 | 12.22° C | - | 1005.4 hPa | 0 mm | - | - | - |
| 1778044183 | 12.22° C | - | 1005.2 hPa | 0.25 mm | - | - | - |
* Rain latest hour (hover to see other rain measurements)
** Current wind speed in m/s (hover to see current wind gust speed)